KPIT/PIT METAR and TAF weather

Enter ICAO airport designator
Station Type Date Time Source
KPIT METAR 2019/04/18 09:51 UTC NOAA

KPIT 180951Z 16005KT 10SM BKN075 BKN250 15/08 A2982 RMK AO2 SLP100 T01500078


Station Type Date Time Source
KPIT Decoded METAR 2019/04/18 09:51 UTC NOAA

GREATER PITTSBURGH INTERNATIONAL , PA, United States (KPIT) 40-29N 80-14W 357M
Apr 18, 2019 - 05:51 AM EDT / 2019.04.18 0951 UTC
Wind: from the SSE (160 degrees) at 6 MPH (5 KT):0
Visibility: 10 mile(s):0
Sky conditions: mostly cloudy
Temperature: 59.0 F (15.0 C)
Dew Point: 46.0 F (7.8 C)
Relative Humidity: 62%
Pressure (altimeter): 29.82 in. Hg (1009 hPa)
ob: KPIT 180951Z 16005KT 10SM BKN075 BKN250 15/08 A2982 RMK AO2 SLP100 T01500078
cycle: 10

Station Type Date Time Source
KPIT TAF 2019/04/18 09:58 UTC NOAA

TAF
AMD KPIT 180856Z 1809/1912 15006KT P6SM BKN080 WS020/23035KT
FM181400 21012G24KT P6SM SCT060
FM190000 18004KT P6SM BKN200
FM190500 19010KT P6SM BKN100 WS020/21050KT
FM191000 17009KT P6SM -SHRA OVC045 WS020/20040KT

Example: see airport list